sensor_id;sensor_type;location;lat;lon;timestamp;P1;durP1;ratioP1;P2;durP2;ratioP2
10880;SDS011;5493;48.884;8.338;2023-02-04T00:01:06;2.87;;;2.20;;
10880;SDS011;5493;48.884;8.338;2023-02-04T00:03:34;2.80;;;2.03;;
10880;SDS011;5493;48.884;8.338;2023-02-04T00:06:00;2.90;;;2.53;;
10880;SDS011;5493;48.884;8.338;2023-02-04T00:08:27;3.60;;;2.73;;
10880;SDS011;5493;48.884;8.338;2023-02-04T00:10:53;4.50;;;3.20;;
10880;SDS011;5493;48.884;8.338;2023-02-04T00:13:20;5.90;;;3.17;;
10880;SDS011;5493;48.884;8.338;2023-02-04T00:15:47;2.73;;;2.10;;
10880;SDS011;5493;48.884;8.338;2023-02-04T00:18:13;2.47;;;1.70;;
10880;SDS011;5493;48.884;8.338;2023-02-04T00:20:41;4.37;;;2.20;;
10880;SDS011;5493;48.884;8.338;2023-02-04T00:23:08;1.93;;;1.37;;
10880;SDS011;5493;48.884;8.338;2023-02-04T00:25:34;2.83;;;2.23;;
10880;SDS011;5493;48.884;8.338;2023-02-04T00:28:01;4.47;;;2.57;;
10880;SDS011;5493;48.884;8.338;2023-02-04T00:30:28;3.30;;;2.13;;
10880;SDS011;5493;48.884;8.338;2023-02-04T00:32:55;4.60;;;2.50;;
10880;SDS011;5493;48.884;8.338;2023-02-04T00:35:21;3.03;;;2.03;;
10880;SDS011;5493;48.884;8.338;2023-02-04T00:37:50;3.40;;;1.80;;
10880;SDS011;5493;48.884;8.338;2023-02-04T00:40:17;3.23;;;1.97;;
10880;SDS011;5493;48.884;8.338;2023-02-04T00:42:43;2.50;;;2.10;;
10880;SDS011;5493;48.884;8.338;2023-02-04T00:45:10;2.87;;;2.03;;
10880;SDS011;5493;48.884;8.338;2023-02-04T00:47:38;4.30;;;2.67;;
10880;SDS011;5493;48.884;8.338;2023-02-04T00:50:05;3.90;;;2.27;;
10880;SDS011;5493;48.884;8.338;2023-02-04T00:52:32;2.50;;;2.10;;
10880;SDS011;5493;48.884;8.338;2023-02-04T00:55:00;3.37;;;2.20;;
10880;SDS011;5493;48.884;8.338;2023-02-04T00:57:26;4.17;;;2.50;;
10880;SDS011;5493;48.884;8.338;2023-02-04T00:59:53;4.63;;;1.93;;
10880;SDS011;5493;48.884;8.338;2023-02-04T01:02:19;2.83;;;2.30;;
10880;SDS011;5493;48.884;8.338;2023-02-04T01:04:46;3.67;;;2.77;;
10880;SDS011;5493;48.884;8.338;2023-02-04T01:07:12;1.87;;;1.60;;
10880;SDS011;5493;48.884;8.338;2023-02-04T01:09:39;4.87;;;2.20;;
10880;SDS011;5493;48.884;8.338;2023-02-04T01:12:07;3.23;;;2.60;;
10880;SDS011;5493;48.884;8.338;2023-02-04T01:14:34;2.47;;;2.10;;
10880;SDS011;5493;48.884;8.338;2023-02-04T01:17:00;2.50;;;2.07;;
10880;SDS011;5493;48.884;8.338;2023-02-04T01:19:27;3.43;;;2.23;;
10880;SDS011;5493;48.884;8.338;2023-02-04T01:21:53;2.30;;;1.90;;
10880;SDS011;5493;48.884;8.338;2023-02-04T01:24:20;2.20;;;2.00;;
10880;SDS011;5493;48.884;8.338;2023-02-04T01:26:46;3.03;;;2.43;;
10880;SDS011;5493;48.884;8.338;2023-02-04T01:29:14;3.30;;;2.13;;
10880;SDS011;5493;48.884;8.338;2023-02-04T01:31:41;2.73;;;2.03;;
10880;SDS011;5493;48.884;8.338;2023-02-04T01:34:07;2.27;;;1.70;;
10880;SDS011;5493;48.884;8.338;2023-02-04T01:36:34;3.47;;;2.40;;
10880;SDS011;5493;48.884;8.338;2023-02-04T01:39:00;3.10;;;2.07;;
10880;SDS011;5493;48.884;8.338;2023-02-04T01:41:27;6.40;;;2.40;;
10880;SDS011;5493;48.884;8.338;2023-02-04T01:43:54;3.40;;;2.33;;
10880;SDS011;5493;48.884;8.338;2023-02-04T01:46:22;4.70;;;2.50;;
10880;SDS011;5493;48.884;8.338;2023-02-04T01:48:48;2.73;;;1.63;;
10880;SDS011;5493;48.884;8.338;2023-02-04T01:51:16;3.50;;;2.33;;
10880;SDS011;5493;48.884;8.338;2023-02-04T01:53:51;3.40;;;2.23;;
10880;SDS011;5493;48.884;8.338;2023-02-04T01:56:18;4.23;;;3.00;;
10880;SDS011;5493;48.884;8.338;2023-02-04T01:58:47;4.40;;;2.20;;
10880;SDS011;5493;48.884;8.338;2023-02-04T02:01:15;3.97;;;2.57;;
10880;SDS011;5493;48.884;8.338;2023-02-04T02:04:01;4.33;;;2.50;;
10880;SDS011;5493;48.884;8.338;2023-02-04T02:06:28;3.90;;;2.53;;
10880;SDS011;5493;48.884;8.338;2023-02-04T02:08:55;4.57;;;2.70;;
10880;SDS011;5493;48.884;8.338;2023-02-04T02:11:22;4.63;;;2.13;;
10880;SDS011;5493;48.884;8.338;2023-02-04T02:13:49;3.00;;;2.27;;
10880;SDS011;5493;48.884;8.338;2023-02-04T02:16:15;3.83;;;2.67;;
10880;SDS011;5493;48.884;8.338;2023-02-04T02:18:43;3.20;;;2.30;;
10880;SDS011;5493;48.884;8.338;2023-02-04T02:21:11;2.70;;;2.30;;
10880;SDS011;5493;48.884;8.338;2023-02-04T02:23:45;2.77;;;2.30;;
10880;SDS011;5493;48.884;8.338;2023-02-04T02:26:12;4.23;;;2.73;;
10880;SDS011;5493;48.884;8.338;2023-02-04T02:28:41;3.03;;;2.30;;
10880;SDS011;5493;48.884;8.338;2023-02-04T02:31:09;4.83;;;2.70;;
10880;SDS011;5493;48.884;8.338;2023-02-04T02:33:35;3.73;;;2.23;;
10880;SDS011;5493;48.884;8.338;2023-02-04T02:36:02;3.30;;;2.17;;
10880;SDS011;5493;48.884;8.338;2023-02-04T02:38:29;4.17;;;2.53;;
10880;SDS011;5493;48.884;8.338;2023-02-04T02:40:58;6.37;;;2.67;;
10880;SDS011;5493;48.884;8.338;2023-02-04T02:43:26;4.50;;;2.40;;
10880;SDS011;5493;48.884;8.338;2023-02-04T02:45:54;3.90;;;2.53;;
10880;SDS011;5493;48.884;8.338;2023-02-04T02:48:23;3.53;;;2.77;;
10880;SDS011;5493;48.884;8.338;2023-02-04T02:50:50;3.60;;;2.63;;
10880;SDS011;5493;48.884;8.338;2023-02-04T02:53:17;3.87;;;2.57;;
10880;SDS011;5493;48.884;8.338;2023-02-04T02:55:45;3.50;;;2.40;;
10880;SDS011;5493;48.884;8.338;2023-02-04T02:58:15;3.20;;;2.27;;
10880;SDS011;5493;48.884;8.338;2023-02-04T03:00:49;5.67;;;2.83;;
10880;SDS011;5493;48.884;8.338;2023-02-04T03:03:18;2.77;;;2.43;;
10880;SDS011;5493;48.884;8.338;2023-02-04T03:05:48;3.47;;;2.77;;
10880;SDS011;5493;48.884;8.338;2023-02-04T03:08:19;2.47;;;2.00;;
10880;SDS011;5493;48.884;8.338;2023-02-04T03:10:45;2.37;;;1.70;;
10880;SDS011;5493;48.884;8.338;2023-02-04T03:13:14;2.50;;;1.33;;
10880;SDS011;5493;48.884;8.338;2023-02-04T03:15:42;2.87;;;1.60;;
10880;SDS011;5493;48.884;8.338;2023-02-04T03:18:11;1.13;;;1.03;;
10880;SDS011;5493;48.884;8.338;2023-02-04T03:20:41;1.63;;;1.27;;
10880;SDS011;5493;48.884;8.338;2023-02-04T03:23:08;1.30;;;1.03;;
10880;SDS011;5493;48.884;8.338;2023-02-04T03:25:34;1.47;;;1.30;;
10880;SDS011;5493;48.884;8.338;2023-02-04T03:28:01;2.03;;;1.10;;
10880;SDS011;5493;48.884;8.338;2023-02-04T03:30:30;1.27;;;1.00;;
10880;SDS011;5493;48.884;8.338;2023-02-04T03:32:57;3.63;;;2.07;;
10880;SDS011;5493;48.884;8.338;2023-02-04T03:35:24;1.43;;;1.27;;
10880;SDS011;5493;48.884;8.338;2023-02-04T03:37:50;1.60;;;1.27;;
10880;SDS011;5493;48.884;8.338;2023-02-04T03:40:17;1.10;;;0.97;;
10880;SDS011;5493;48.884;8.338;2023-02-04T03:42:44;1.73;;;1.00;;
10880;SDS011;5493;48.884;8.338;2023-02-04T03:45:10;1.93;;;1.10;;
10880;SDS011;5493;48.884;8.338;2023-02-04T03:47:38;2.57;;;1.80;;
10880;SDS011;5493;48.884;8.338;2023-02-04T03:50:05;2.47;;;1.57;;
10880;SDS011;5493;48.884;8.338;2023-02-04T03:52:31;1.53;;;1.20;;
10880;SDS011;5493;48.884;8.338;2023-02-04T03:54:58;1.77;;;1.20;;
10880;SDS011;5493;48.884;8.338;2023-02-04T03:57:24;6.93;;;2.40;;
10880;SDS011;5493;48.884;8.338;2023-02-04T03:59:51;3.23;;;2.40;;
10880;SDS011;5493;48.884;8.338;2023-02-04T04:02:17;1.60;;;1.50;;
10880;SDS011;5493;48.884;8.338;2023-02-04T04:04:45;2.27;;;1.70;;
10880;SDS011;5493;48.884;8.338;2023-02-04T04:07:12;2.77;;;1.60;;
10880;SDS011;5493;48.884;8.338;2023-02-04T04:09:38;2.50;;;2.00;;
10880;SDS011;5493;48.884;8.338;2023-02-04T04:12:05;3.10;;;1.73;;
10880;SDS011;5493;48.884;8.338;2023-02-04T04:14:32;1.77;;;1.67;;
10880;SDS011;5493;48.884;8.338;2023-02-04T04:16:58;1.87;;;1.57;;
10880;SDS011;5493;48.884;8.338;2023-02-04T04:19:25;1.90;;;1.50;;
10880;SDS011;5493;48.884;8.338;2023-02-04T04:21:52;1.53;;;1.30;;
10880;SDS011;5493;48.884;8.338;2023-02-04T04:24:19;2.07;;;1.40;;
10880;SDS011;5493;48.884;8.338;2023-02-04T04:26:45;3.30;;;1.47;;
10880;SDS011;5493;48.884;8.338;2023-02-04T04:29:12;1.97;;;1.40;;
10880;SDS011;5493;48.884;8.338;2023-02-04T04:31:38;4.40;;;2.17;;
10880;SDS011;5493;48.884;8.338;2023-02-04T04:34:05;2.63;;;1.50;;
10880;SDS011;5493;48.884;8.338;2023-02-04T04:36:31;3.17;;;1.80;;
10880;SDS011;5493;48.884;8.338;2023-02-04T04:38:59;2.63;;;1.60;;
10880;SDS011;5493;48.884;8.338;2023-02-04T04:41:26;1.30;;;1.20;;
10880;SDS011;5493;48.884;8.338;2023-02-04T04:43:52;1.57;;;1.43;;
10880;SDS011;5493;48.884;8.338;2023-02-04T04:46:19;1.90;;;1.40;;
10880;SDS011;5493;48.884;8.338;2023-02-04T04:48:46;3.80;;;1.70;;
10880;SDS011;5493;48.884;8.338;2023-02-04T04:51:13;2.37;;;1.30;;
10880;SDS011;5493;48.884;8.338;2023-02-04T04:53:39;4.13;;;1.73;;
10880;SDS011;5493;48.884;8.338;2023-02-04T04:56:07;3.07;;;1.80;;
10880;SDS011;5493;48.884;8.338;2023-02-04T04:58:33;2.90;;;1.70;;
10880;SDS011;5493;48.884;8.338;2023-02-04T05:01:00;2.50;;;1.73;;
10880;SDS011;5493;48.884;8.338;2023-02-04T05:03:27;5.13;;;1.83;;
10880;SDS011;5493;48.884;8.338;2023-02-04T05:05:53;3.23;;;1.87;;
10880;SDS011;5493;48.884;8.338;2023-02-04T05:08:20;2.83;;;1.43;;
10880;SDS011;5493;48.884;8.338;2023-02-04T05:10:46;3.43;;;1.70;;
10880;SDS011;5493;48.884;8.338;2023-02-04T05:13:15;3.53;;;1.77;;
10880;SDS011;5493;48.884;8.338;2023-02-04T05:15:42;2.13;;;1.47;;
10880;SDS011;5493;48.884;8.338;2023-02-04T05:18:08;3.43;;;1.70;;
10880;SDS011;5493;48.884;8.338;2023-02-04T05:20:36;4.60;;;1.73;;
10880;SDS011;5493;48.884;8.338;2023-02-04T05:23:03;4.90;;;1.90;;
10880;SDS011;5493;48.884;8.338;2023-02-04T05:25:30;3.63;;;1.40;;
10880;SDS011;5493;48.884;8.338;2023-02-04T05:27:56;3.37;;;1.57;;
10880;SDS011;5493;48.884;8.338;2023-02-04T05:30:24;2.83;;;1.70;;
10880;SDS011;5493;48.884;8.338;2023-02-04T05:32:50;2.83;;;1.63;;
10880;SDS011;5493;48.884;8.338;2023-02-04T05:35:17;7.43;;;1.90;;
10880;SDS011;5493;48.884;8.338;2023-02-04T05:37:44;4.97;;;1.90;;
10880;SDS011;5493;48.884;8.338;2023-02-04T05:40:11;6.73;;;1.93;;
10880;SDS011;5493;48.884;8.338;2023-02-04T05:42:38;6.20;;;1.90;;
10880;SDS011;5493;48.884;8.338;2023-02-04T05:45:06;3.87;;;1.67;;
10880;SDS011;5493;48.884;8.338;2023-02-04T05:47:34;4.00;;;2.17;;
10880;SDS011;5493;48.884;8.338;2023-02-04T05:50:01;5.00;;;2.80;;
10880;SDS011;5493;48.884;8.338;2023-02-04T05:52:27;5.67;;;2.53;;
10880;SDS011;5493;48.884;8.338;2023-02-04T05:54:54;3.33;;;2.43;;
10880;SDS011;5493;48.884;8.338;2023-02-04T05:57:21;9.03;;;2.93;;
10880;SDS011;5493;48.884;8.338;2023-02-04T05:59:47;4.87;;;2.40;;
10880;SDS011;5493;48.884;8.338;2023-02-04T06:02:14;4.47;;;2.20;;
10880;SDS011;5493;48.884;8.338;2023-02-04T06:04:42;4.07;;;2.20;;
10880;SDS011;5493;48.884;8.338;2023-02-04T06:07:08;3.97;;;1.90;;
10880;SDS011;5493;48.884;8.338;2023-02-04T06:09:35;4.97;;;2.00;;
10880;SDS011;5493;48.884;8.338;2023-02-04T06:12:02;3.50;;;2.07;;
10880;SDS011;5493;48.884;8.338;2023-02-04T06:14:28;4.77;;;1.90;;
10880;SDS011;5493;48.884;8.338;2023-02-04T06:16:55;6.53;;;2.00;;
10880;SDS011;5493;48.884;8.338;2023-02-04T06:19:22;4.00;;;2.00;;
10880;SDS011;5493;48.884;8.338;2023-02-04T06:21:49;5.60;;;2.30;;
10880;SDS011;5493;48.884;8.338;2023-02-04T06:24:16;4.63;;;2.30;;
10880;SDS011;5493;48.884;8.338;2023-02-04T06:26:43;3.17;;;2.03;;
10880;SDS011;5493;48.884;8.338;2023-02-04T06:29:09;3.83;;;1.90;;
10880;SDS011;5493;48.884;8.338;2023-02-04T06:31:36;8.13;;;3.33;;
10880;SDS011;5493;48.884;8.338;2023-02-04T06:34:03;6.20;;;2.77;;
10880;SDS011;5493;48.884;8.338;2023-02-04T06:36:29;7.07;;;4.13;;
10880;SDS011;5493;48.884;8.338;2023-02-04T06:38:57;7.83;;;4.00;;
10880;SDS011;5493;48.884;8.338;2023-02-04T06:41:24;9.10;;;4.03;;
10880;SDS011;5493;48.884;8.338;2023-02-04T06:43:51;3.90;;;2.73;;
10880;SDS011;5493;48.884;8.338;2023-02-04T06:46:17;6.27;;;2.80;;
10880;SDS011;5493;48.884;8.338;2023-02-04T06:48:44;3.93;;;2.30;;
10880;SDS011;5493;48.884;8.338;2023-02-04T06:51:10;5.90;;;3.40;;
10880;SDS011;5493;48.884;8.338;2023-02-04T06:53:37;7.40;;;3.80;;
10880;SDS011;5493;48.884;8.338;2023-02-04T06:56:05;7.17;;;4.60;;
10880;SDS011;5493;48.884;8.338;2023-02-04T06:58:32;4.27;;;3.07;;
10880;SDS011;5493;48.884;8.338;2023-02-04T07:00:59;6.07;;;2.60;;
10880;SDS011;5493;48.884;8.338;2023-02-04T07:03:25;3.60;;;2.10;;
10880;SDS011;5493;48.884;8.338;2023-02-04T07:05:52;4.10;;;3.03;;
10880;SDS011;5493;48.884;8.338;2023-02-04T07:08:18;4.37;;;2.80;;
10880;SDS011;5493;48.884;8.338;2023-02-04T07:10:45;4.00;;;2.50;;
10880;SDS011;5493;48.884;8.338;2023-02-04T07:13:13;2.73;;;2.13;;
10880;SDS011;5493;48.884;8.338;2023-02-04T07:15:40;2.83;;;1.70;;
10880;SDS011;5493;48.884;8.338;2023-02-04T07:18:06;2.47;;;1.33;;
10880;SDS011;5493;48.884;8.338;2023-02-04T07:20:33;1.70;;;1.37;;
10880;SDS011;5493;48.884;8.338;2023-02-04T07:23:00;4.10;;;1.33;;
10880;SDS011;5493;48.884;8.338;2023-02-04T07:25:26;4.17;;;1.70;;
10880;SDS011;5493;48.884;8.338;2023-02-04T07:27:53;4.13;;;3.33;;
10880;SDS011;5493;48.884;8.338;2023-02-04T07:30:21;18.90;;;10.33;;
10880;SDS011;5493;48.884;8.338;2023-02-04T07:32:48;6.87;;;4.67;;
10880;SDS011;5493;48.884;8.338;2023-02-04T07:35:14;4.57;;;2.57;;
10880;SDS011;5493;48.884;8.338;2023-02-04T07:37:41;3.57;;;1.97;;
10880;SDS011;5493;48.884;8.338;2023-02-04T07:40:08;3.80;;;1.97;;
10880;SDS011;5493;48.884;8.338;2023-02-04T07:42:36;9.07;;;4.03;;
10880;SDS011;5493;48.884;8.338;2023-02-04T07:45:03;6.80;;;5.33;;
10880;SDS011;5493;48.884;8.338;2023-02-04T07:47:31;8.67;;;4.83;;
10880;SDS011;5493;48.884;8.338;2023-02-04T07:49:58;4.63;;;2.70;;
10880;SDS011;5493;48.884;8.338;2023-02-04T07:52:24;2.60;;;1.57;;
10880;SDS011;5493;48.884;8.338;2023-02-04T07:54:51;2.87;;;1.87;;
10880;SDS011;5493;48.884;8.338;2023-02-04T07:57:18;2.33;;;1.20;;
10880;SDS011;5493;48.884;8.338;2023-02-04T07:59:44;4.47;;;1.63;;
10880;SDS011;5493;48.884;8.338;2023-02-04T08:02:11;1.93;;;1.40;;
10880;SDS011;5493;48.884;8.338;2023-02-04T08:04:39;2.60;;;1.23;;
10880;SDS011;5493;48.884;8.338;2023-02-04T08:07:05;2.90;;;1.37;;
10880;SDS011;5493;48.884;8.338;2023-02-04T08:09:32;2.30;;;1.40;;
10880;SDS011;5493;48.884;8.338;2023-02-04T08:11:58;2.77;;;1.90;;
10880;SDS011;5493;48.884;8.338;2023-02-04T08:14:25;5.60;;;2.20;;
10880;SDS011;5493;48.884;8.338;2023-02-04T08:16:51;3.40;;;1.70;;
10880;SDS011;5493;48.884;8.338;2023-02-04T08:19:18;9.03;;;4.57;;
10880;SDS011;5493;48.884;8.338;2023-02-04T08:21:47;7.37;;;3.37;;
10880;SDS011;5493;48.884;8.338;2023-02-04T08:24:14;4.73;;;3.47;;
10880;SDS011;5493;48.884;8.338;2023-02-04T08:26:41;5.70;;;3.90;;
10880;SDS011;5493;48.884;8.338;2023-02-04T08:29:08;3.63;;;3.20;;
10880;SDS011;5493;48.884;8.338;2023-02-04T08:31:36;5.47;;;3.00;;
10880;SDS011;5493;48.884;8.338;2023-02-04T08:34:03;3.67;;;2.97;;
10880;SDS011;5493;48.884;8.338;2023-02-04T08:36:30;8.87;;;4.83;;
10880;SDS011;5493;48.884;8.338;2023-02-04T08:38:58;6.17;;;3.63;;
10880;SDS011;5493;48.884;8.338;2023-02-04T08:41:25;6.87;;;3.70;;
10880;SDS011;5493;48.884;8.338;2023-02-04T08:43:51;5.03;;;3.73;;
10880;SDS011;5493;48.884;8.338;2023-02-04T08:46:18;8.53;;;5.40;;
10880;SDS011;5493;48.884;8.338;2023-02-04T08:48:45;10.00;;;6.80;;
10880;SDS011;5493;48.884;8.338;2023-02-04T08:51:11;10.53;;;6.10;;
10880;SDS011;5493;48.884;8.338;2023-02-04T08:53:38;7.17;;;4.77;;
10880;SDS011;5493;48.884;8.338;2023-02-04T08:56:06;5.33;;;3.90;;
10880;SDS011;5493;48.884;8.338;2023-02-04T08:58:34;7.77;;;4.47;;
10880;SDS011;5493;48.884;8.338;2023-02-04T09:01:01;8.73;;;4.50;;
10880;SDS011;5493;48.884;8.338;2023-02-04T09:03:27;11.37;;;5.73;;
10880;SDS011;5493;48.884;8.338;2023-02-04T09:05:54;5.63;;;3.63;;
10880;SDS011;5493;48.884;8.338;2023-02-04T09:08:21;17.63;;;7.50;;
10880;SDS011;5493;48.884;8.338;2023-02-04T09:10:48;9.43;;;3.57;;
10880;SDS011;5493;48.884;8.338;2023-02-04T09:13:16;4.17;;;2.23;;
10880;SDS011;5493;48.884;8.338;2023-02-04T09:15:42;5.00;;;2.17;;
10880;SDS011;5493;48.884;8.338;2023-02-04T09:18:09;4.40;;;2.00;;
10880;SDS011;5493;48.884;8.338;2023-02-04T09:20:41;3.93;;;2.10;;
10880;SDS011;5493;48.884;8.338;2023-02-04T09:23:07;6.47;;;2.33;;
10880;SDS011;5493;48.884;8.338;2023-02-04T09:25:36;2.50;;;1.90;;
10880;SDS011;5493;48.884;8.338;2023-02-04T09:28:03;6.67;;;3.23;;
10880;SDS011;5493;48.884;8.338;2023-02-04T09:30:31;5.50;;;2.13;;
10880;SDS011;5493;48.884;8.338;2023-02-04T09:32:58;6.30;;;2.63;;
10880;SDS011;5493;48.884;8.338;2023-02-04T09:35:24;8.90;;;3.33;;
10880;SDS011;5493;48.884;8.338;2023-02-04T09:37:51;6.33;;;2.70;;
10880;SDS011;5493;48.884;8.338;2023-02-04T09:40:18;5.77;;;3.07;;
10880;SDS011;5493;48.884;8.338;2023-02-04T09:42:46;3.97;;;3.07;;
10880;SDS011;5493;48.884;8.338;2023-02-04T09:45:14;8.37;;;2.90;;
10880;SDS011;5493;48.884;8.338;2023-02-04T09:47:44;7.50;;;2.60;;
10880;SDS011;5493;48.884;8.338;2023-02-04T09:50:14;8.77;;;2.30;;
10880;SDS011;5493;48.884;8.338;2023-02-04T09:52:43;7.60;;;2.63;;
10880;SDS011;5493;48.884;8.338;2023-02-04T09:55:12;6.83;;;3.20;;
10880;SDS011;5493;48.884;8.338;2023-02-04T09:57:39;12.73;;;3.50;;
10880;SDS011;5493;48.884;8.338;2023-02-04T10:00:10;6.77;;;3.00;;
10880;SDS011;5493;48.884;8.338;2023-02-04T10:02:40;6.57;;;2.73;;
10880;SDS011;5493;48.884;8.338;2023-02-04T10:05:11;9.27;;;4.00;;
10880;SDS011;5493;48.884;8.338;2023-02-04T10:07:40;12.83;;;4.00;;
10880;SDS011;5493;48.884;8.338;2023-02-04T10:10:11;7.87;;;3.53;;
10880;SDS011;5493;48.884;8.338;2023-02-04T10:12:41;9.90;;;3.13;;
10880;SDS011;5493;48.884;8.338;2023-02-04T10:15:08;10.37;;;3.33;;
10880;SDS011;5493;48.884;8.338;2023-02-04T10:17:39;7.83;;;3.03;;
10880;SDS011;5493;48.884;8.338;2023-02-04T10:22:40;9.63;;;3.00;;
10880;SDS011;5493;48.884;8.338;2023-02-04T10:25:10;10.07;;;2.97;;
10880;SDS011;5493;48.884;8.338;2023-02-04T10:27:48;11.40;;;3.27;;
10880;SDS011;5493;48.884;8.338;2023-02-04T10:30:17;7.73;;;2.47;;
10880;SDS011;5493;48.884;8.338;2023-02-04T10:32:46;8.27;;;3.27;;
10880;SDS011;5493;48.884;8.338;2023-02-04T10:37:46;14.00;;;3.00;;
10880;SDS011;5493;48.884;8.338;2023-02-04T10:40:28;15.53;;;2.80;;
10880;SDS011;5493;48.884;8.338;2023-02-04T10:42:56;10.47;;;3.33;;
10880;SDS011;5493;48.884;8.338;2023-02-04T10:45:24;9.33;;;3.10;;
10880;SDS011;5493;48.884;8.338;2023-02-04T10:47:53;5.47;;;2.97;;
10880;SDS011;5493;48.884;8.338;2023-02-04T10:50:22;10.20;;;3.03;;
10880;SDS011;5493;48.884;8.338;2023-02-04T10:52:50;10.43;;;3.30;;
10880;SDS011;5493;48.884;8.338;2023-02-04T10:55:40;8.17;;;2.90;;
10880;SDS011;5493;48.884;8.338;2023-02-04T10:58:07;9.97;;;2.80;;
10880;SDS011;5493;48.884;8.338;2023-02-04T11:00:37;11.17;;;3.37;;
10880;SDS011;5493;48.884;8.338;2023-02-04T11:03:05;13.90;;;3.90;;
10880;SDS011;5493;48.884;8.338;2023-02-04T11:05:37;9.23;;;2.40;;
10880;SDS011;5493;48.884;8.338;2023-02-04T11:08:16;7.20;;;2.70;;
10880;SDS011;5493;48.884;8.338;2023-02-04T11:10:48;7.13;;;2.90;;
10880;SDS011;5493;48.884;8.338;2023-02-04T11:13:20;9.87;;;3.00;;
10880;SDS011;5493;48.884;8.338;2023-02-04T11:15:49;8.57;;;3.23;;
10880;SDS011;5493;48.884;8.338;2023-02-04T11:18:26;12.80;;;2.73;;
10880;SDS011;5493;48.884;8.338;2023-02-04T11:20:58;11.67;;;3.00;;
10880;SDS011;5493;48.884;8.338;2023-02-04T11:23:32;18.40;;;3.87;;
10880;SDS011;5493;48.884;8.338;2023-02-04T11:26:02;9.83;;;3.10;;
10880;SDS011;5493;48.884;8.338;2023-02-04T11:28:48;7.10;;;2.80;;
10880;SDS011;5493;48.884;8.338;2023-02-04T11:31:27;8.03;;;2.73;;
10880;SDS011;5493;48.884;8.338;2023-02-04T11:34:11;9.07;;;2.70;;
10880;SDS011;5493;48.884;8.338;2023-02-04T11:36:55;13.20;;;3.07;;
10880;SDS011;5493;48.884;8.338;2023-02-04T11:39:31;13.03;;;3.20;;
10880;SDS011;5493;48.884;8.338;2023-02-04T11:42:00;10.80;;;2.73;;
10880;SDS011;5493;48.884;8.338;2023-02-04T11:44:34;8.47;;;3.17;;
10880;SDS011;5493;48.884;8.338;2023-02-04T11:47:00;9.30;;;3.13;;
10880;SDS011;5493;48.884;8.338;2023-02-04T11:49:27;12.40;;;3.27;;
10880;SDS011;5493;48.884;8.338;2023-02-04T11:52:04;10.47;;;3.20;;
10880;SDS011;5493;48.884;8.338;2023-02-04T11:54:32;8.33;;;3.40;;
10880;SDS011;5493;48.884;8.338;2023-02-04T11:56:59;10.67;;;3.30;;
10880;SDS011;5493;48.884;8.338;2023-02-04T11:59:26;7.20;;;2.90;;
10880;SDS011;5493;48.884;8.338;2023-02-04T12:02:01;10.33;;;3.23;;
10880;SDS011;5493;48.884;8.338;2023-02-04T12:04:29;11.83;;;2.87;;
10880;SDS011;5493;48.884;8.338;2023-02-04T12:06:56;25.87;;;10.07;;
10880;SDS011;5493;48.884;8.338;2023-02-04T12:09:26;14.43;;;5.83;;
10880;SDS011;5493;48.884;8.338;2023-02-04T12:11:55;10.10;;;3.20;;
10880;SDS011;5493;48.884;8.338;2023-02-04T12:14:27;7.73;;;2.50;;
10880;SDS011;5493;48.884;8.338;2023-02-04T12:16:55;12.10;;;2.93;;
10880;SDS011;5493;48.884;8.338;2023-02-04T12:19:22;11.97;;;2.70;;
10880;SDS011;5493;48.884;8.338;2023-02-04T12:21:49;7.23;;;2.33;;
10880;SDS011;5493;48.884;8.338;2023-02-04T12:24:20;8.07;;;2.20;;
10880;SDS011;5493;48.884;8.338;2023-02-04T12:27:02;7.33;;;2.10;;
10880;SDS011;5493;48.884;8.338;2023-02-04T12:29:38;7.87;;;2.10;;
10880;SDS011;5493;48.884;8.338;2023-02-04T12:32:05;7.50;;;2.17;;
10880;SDS011;5493;48.884;8.338;2023-02-04T12:34:32;9.93;;;3.07;;
10880;SDS011;5493;48.884;8.338;2023-02-04T12:36:59;13.40;;;4.03;;
10880;SDS011;5493;48.884;8.338;2023-02-04T12:39:26;8.83;;;2.83;;
10880;SDS011;5493;48.884;8.338;2023-02-04T12:41:53;10.37;;;2.83;;
10880;SDS011;5493;48.884;8.338;2023-02-04T12:44:21;9.23;;;2.30;;
10880;SDS011;5493;48.884;8.338;2023-02-04T12:46:49;5.27;;;2.30;;
10880;SDS011;5493;48.884;8.338;2023-02-04T12:49:16;7.47;;;2.37;;
10880;SDS011;5493;48.884;8.338;2023-02-04T12:51:43;9.23;;;2.50;;
10880;SDS011;5493;48.884;8.338;2023-02-04T12:54:10;6.93;;;2.10;;
10880;SDS011;5493;48.884;8.338;2023-02-04T12:56:37;6.30;;;2.33;;
10880;SDS011;5493;48.884;8.338;2023-02-04T12:59:04;6.60;;;1.93;;
10880;SDS011;5493;48.884;8.338;2023-02-04T13:01:32;5.03;;;2.17;;
10880;SDS011;5493;48.884;8.338;2023-02-04T13:04:00;7.83;;;2.17;;
10880;SDS011;5493;48.884;8.338;2023-02-04T13:06:27;9.57;;;2.43;;
10880;SDS011;5493;48.884;8.338;2023-02-04T13:08:54;9.13;;;2.30;;
10880;SDS011;5493;48.884;8.338;2023-02-04T13:11:21;6.87;;;1.63;;
10880;SDS011;5493;48.884;8.338;2023-02-04T13:13:47;5.30;;;1.80;;
10880;SDS011;5493;48.884;8.338;2023-02-04T13:16:14;7.10;;;3.00;;
10880;SDS011;5493;48.884;8.338;2023-02-04T13:18:44;7.17;;;2.47;;
10880;SDS011;5493;48.884;8.338;2023-02-04T13:21:11;5.97;;;2.00;;
10880;SDS011;5493;48.884;8.338;2023-02-04T13:23:38;5.43;;;2.40;;
10880;SDS011;5493;48.884;8.338;2023-02-04T13:26:04;6.97;;;1.87;;
10880;SDS011;5493;48.884;8.338;2023-02-04T13:28:31;9.17;;;2.27;;
10880;SDS011;5493;48.884;8.338;2023-02-04T13:30:58;6.83;;;1.90;;
10880;SDS011;5493;48.884;8.338;2023-02-04T13:33:25;5.17;;;1.73;;
10880;SDS011;5493;48.884;8.338;2023-02-04T13:35:53;9.43;;;2.40;;
10880;SDS011;5493;48.884;8.338;2023-02-04T13:38:20;13.30;;;5.20;;
10880;SDS011;5493;48.884;8.338;2023-02-04T13:40:46;7.70;;;3.53;;
10880;SDS011;5493;48.884;8.338;2023-02-04T13:43:13;7.27;;;2.33;;
10880;SDS011;5493;48.884;8.338;2023-02-04T13:45:40;7.83;;;2.50;;
10880;SDS011;5493;48.884;8.338;2023-02-04T13:48:11;10.03;;;3.43;;
10880;SDS011;5493;48.884;8.338;2023-02-04T13:50:38;5.87;;;3.20;;
10880;SDS011;5493;48.884;8.338;2023-02-04T13:53:06;10.53;;;2.93;;
10880;SDS011;5493;48.884;8.338;2023-02-04T13:55:33;7.27;;;3.00;;
10880;SDS011;5493;48.884;8.338;2023-02-04T13:58:00;11.67;;;3.93;;
10880;SDS011;5493;48.884;8.338;2023-02-04T14:00:29;8.13;;;2.80;;
10880;SDS011;5493;48.884;8.338;2023-02-04T14:03:01;6.13;;;2.50;;
10880;SDS011;5493;48.884;8.338;2023-02-04T14:09:23;7.43;;;2.10;;
10880;SDS011;5493;48.884;8.338;2023-02-04T14:11:51;8.20;;;2.57;;
10880;SDS011;5493;48.884;8.338;2023-02-04T14:14:18;4.63;;;1.80;;
10880;SDS011;5493;48.884;8.338;2023-02-04T14:16:47;6.63;;;1.70;;
10880;SDS011;5493;48.884;8.338;2023-02-04T14:19:14;9.30;;;2.97;;
10880;SDS011;5493;48.884;8.338;2023-02-04T14:21:41;8.97;;;3.50;;
10880;SDS011;5493;48.884;8.338;2023-02-04T14:24:07;7.87;;;2.73;;
10880;SDS011;5493;48.884;8.338;2023-02-04T14:26:35;5.07;;;2.07;;
10880;SDS011;5493;48.884;8.338;2023-02-04T14:29:02;5.17;;;2.00;;
10880;SDS011;5493;48.884;8.338;2023-02-04T14:31:28;8.60;;;2.47;;
10880;SDS011;5493;48.884;8.338;2023-02-04T14:33:55;8.77;;;2.30;;
10880;SDS011;5493;48.884;8.338;2023-02-04T14:36:22;6.87;;;1.97;;
10880;SDS011;5493;48.884;8.338;2023-02-04T14:38:49;4.47;;;2.40;;
10880;SDS011;5493;48.884;8.338;2023-02-04T14:41:15;5.30;;;2.17;;
10880;SDS011;5493;48.884;8.338;2023-02-04T14:43:45;7.50;;;2.20;;
10880;SDS011;5493;48.884;8.338;2023-02-04T14:46:12;7.37;;;3.83;;
10880;SDS011;5493;48.884;8.338;2023-02-04T14:48:39;5.53;;;2.10;;
10880;SDS011;5493;48.884;8.338;2023-02-04T14:51:05;5.83;;;1.90;;
10880;SDS011;5493;48.884;8.338;2023-02-04T14:53:31;4.47;;;2.13;;
10880;SDS011;5493;48.884;8.338;2023-02-04T14:55:58;5.47;;;2.27;;
10880;SDS011;5493;48.884;8.338;2023-02-04T14:58:24;3.60;;;1.53;;
10880;SDS011;5493;48.884;8.338;2023-02-04T15:00:52;6.40;;;2.10;;
10880;SDS011;5493;48.884;8.338;2023-02-04T15:03:19;3.17;;;1.50;;
10880;SDS011;5493;48.884;8.338;2023-02-04T15:05:45;5.67;;;1.70;;
10880;SDS011;5493;48.884;8.338;2023-02-04T15:08:12;5.60;;;1.40;;
10880;SDS011;5493;48.884;8.338;2023-02-04T15:10:38;4.97;;;1.70;;
10880;SDS011;5493;48.884;8.338;2023-02-04T15:13:05;5.33;;;2.07;;